sensor_id;sensor_type;location;lat;lon;timestamp;temperature;humidity
55091;DHT22;40985;53.180;5.800;2022-12-18T00:03:53;-3.10;99.90
55091;DHT22;40985;53.180;5.800;2022-12-18T00:06:21;-3.10;99.90
55091;DHT22;40985;53.180;5.800;2022-12-18T00:08:47;-3.10;99.90
55091;DHT22;40985;53.180;5.800;2022-12-18T00:11:15;-3.20;99.90
55091;DHT22;40985;53.180;5.800;2022-12-18T00:13:41;-3.10;99.90
55091;DHT22;40985;53.180;5.800;2022-12-18T00:16:10;-3.10;99.90
55091;DHT22;40985;53.180;5.800;2022-12-18T00:18:36;-3.10;99.90
55091;DHT22;40985;53.180;5.800;2022-12-18T00:21:04;-3.10;99.90
55091;DHT22;40985;53.180;5.800;2022-12-18T00:23:32;-3.20;99.90
55091;DHT22;40985;53.180;5.800;2022-12-18T00:26:00;-3.20;99.90
55091;DHT22;40985;53.180;5.800;2022-12-18T00:28:26;-3.20;99.90
55091;DHT22;40985;53.180;5.800;2022-12-18T00:31:00;-3.20;99.90
55091;DHT22;40985;53.180;5.800;2022-12-18T00:33:26;-3.20;99.90
55091;DHT22;40985;53.180;5.800;2022-12-18T00:35:51;-3.20;99.90
55091;DHT22;40985;53.180;5.800;2022-12-18T00:38:17;-3.20;99.90
55091;DHT22;40985;53.180;5.800;2022-12-18T00:40:43;-3.30;99.90
55091;DHT22;40985;53.180;5.800;2022-12-18T00:43:09;-3.20;99.90
55091;DHT22;40985;53.180;5.800;2022-12-18T00:45:35;-3.20;99.90
55091;DHT22;40985;53.180;5.800;2022-12-18T00:48:00;-3.20;99.90
55091;DHT22;40985;53.180;5.800;2022-12-18T00:50:26;-3.20;99.90
55091;DHT22;40985;53.180;5.800;2022-12-18T00:52:52;-3.20;99.90
55091;DHT22;40985;53.180;5.800;2022-12-18T00:55:18;-3.20;99.90
55091;DHT22;40985;53.180;5.800;2022-12-18T00:57:44;-3.20;99.90
55091;DHT22;40985;53.180;5.800;2022-12-18T01:00:12;-3.20;99.90
55091;DHT22;40985;53.180;5.800;2022-12-18T01:02:39;-3.30;99.90
55091;DHT22;40985;53.180;5.800;2022-12-18T01:05:05;-3.30;99.90
55091;DHT22;40985;53.180;5.800;2022-12-18T01:07:31;-3.30;99.90
55091;DHT22;40985;53.180;5.800;2022-12-18T01:09:56;-3.30;99.90
55091;DHT22;40985;53.180;5.800;2022-12-18T01:12:22;-3.30;99.90
55091;DHT22;40985;53.180;5.800;2022-12-18T01:14:48;-3.30;99.90
55091;DHT22;40985;53.180;5.800;2022-12-18T01:17:13;-3.30;99.90
55091;DHT22;40985;53.180;5.800;2022-12-18T01:19:40;-3.40;99.90
55091;DHT22;40985;53.180;5.800;2022-12-18T01:22:05;-3.30;99.90
55091;DHT22;40985;53.180;5.800;2022-12-18T01:24:31;-3.40;99.90
55091;DHT22;40985;53.180;5.800;2022-12-18T01:26:57;-3.40;99.90
55091;DHT22;40985;53.180;5.800;2022-12-18T01:29:23;-3.40;99.90
55091;DHT22;40985;53.180;5.800;2022-12-18T01:31:49;-3.40;99.90
55091;DHT22;40985;53.180;5.800;2022-12-18T01:34:14;-3.40;99.90
55091;DHT22;40985;53.180;5.800;2022-12-18T01:36:40;-3.40;99.90
55091;DHT22;40985;53.180;5.800;2022-12-18T01:39:13;-3.40;99.90
55091;DHT22;40985;53.180;5.800;2022-12-18T01:41:39;-3.40;99.90
55091;DHT22;40985;53.180;5.800;2022-12-18T01:44:57;-3.40;99.90
55091;DHT22;40985;53.180;5.800;2022-12-18T01:50:14;-3.50;99.90
55091;DHT22;40985;53.180;5.800;2022-12-18T01:52:46;-3.40;99.90
55091;DHT22;40985;53.180;5.800;2022-12-18T01:55:15;-3.40;99.90
55091;DHT22;40985;53.180;5.800;2022-12-18T01:57:42;-3.50;99.90
55091;DHT22;40985;53.180;5.800;2022-12-18T02:00:17;-3.50;99.90
55091;DHT22;40985;53.180;5.800;2022-12-18T02:02:45;-3.50;99.90
55091;DHT22;40985;53.180;5.800;2022-12-18T02:05:13;-3.50;99.90
55091;DHT22;40985;53.180;5.800;2022-12-18T02:07:57;-3.50;99.90
55091;DHT22;40985;53.180;5.800;2022-12-18T02:14:02;-3.60;99.90
55091;DHT22;40985;53.180;5.800;2022-12-18T02:19:55;-3.60;99.90
55091;DHT22;40985;53.180;5.800;2022-12-18T02:22:36;-3.70;99.90
55091;DHT22;40985;53.180;5.800;2022-12-18T02:27:50;-3.70;99.90
55091;DHT22;40985;53.180;5.800;2022-12-18T02:30:17;-3.70;99.90
55091;DHT22;40985;53.180;5.800;2022-12-18T02:32:50;-3.80;99.90
55091;DHT22;40985;53.180;5.800;2022-12-18T02:35:21;-3.80;99.90
55091;DHT22;40985;53.180;5.800;2022-12-18T02:37:48;-3.90;99.90
55091;DHT22;40985;53.180;5.800;2022-12-18T02:40:15;-3.80;99.90
55091;DHT22;40985;53.180;5.800;2022-12-18T02:42:42;-3.90;99.90
55091;DHT22;40985;53.180;5.800;2022-12-18T02:45:08;-3.90;99.90
55091;DHT22;40985;53.180;5.800;2022-12-18T02:47:36;-4.00;99.90
55091;DHT22;40985;53.180;5.800;2022-12-18T02:52:49;-4.10;99.90
55091;DHT22;40985;53.180;5.800;2022-12-18T03:03:14;-4.20;99.90
55091;DHT22;40985;53.180;5.800;2022-12-18T03:05:47;-4.30;99.90
55091;DHT22;40985;53.180;5.800;2022-12-18T03:08:28;-4.30;99.90
55091;DHT22;40985;53.180;5.800;2022-12-18T03:11:02;-4.30;99.90
55091;DHT22;40985;53.180;5.800;2022-12-18T03:13:40;-4.30;99.90
55091;DHT22;40985;53.180;5.800;2022-12-18T03:16:11;-4.40;99.90
55091;DHT22;40985;53.180;5.800;2022-12-18T03:18:49;-4.50;99.90
55091;DHT22;40985;53.180;5.800;2022-12-18T03:21:20;-4.50;99.90
55091;DHT22;40985;53.180;5.800;2022-12-18T03:23:49;-4.50;99.90
55091;DHT22;40985;53.180;5.800;2022-12-18T03:26:18;-4.60;99.90
55091;DHT22;40985;53.180;5.800;2022-12-18T03:28:52;-4.60;99.90
55091;DHT22;40985;53.180;5.800;2022-12-18T03:31:21;-4.60;99.90
55091;DHT22;40985;53.180;5.800;2022-12-18T03:34:09;-4.70;99.90
55091;DHT22;40985;53.180;5.800;2022-12-18T03:36:37;-4.70;99.90
55091;DHT22;40985;53.180;5.800;2022-12-18T03:39:03;-4.80;99.90
55091;DHT22;40985;53.180;5.800;2022-12-18T03:41:33;-4.80;99.90
55091;DHT22;40985;53.180;5.800;2022-12-18T03:44:31;-4.80;99.90
55091;DHT22;40985;53.180;5.800;2022-12-18T03:50:22;-4.80;99.90
55091;DHT22;40985;53.180;5.800;2022-12-18T03:54:52;-4.90;99.90
55091;DHT22;40985;53.180;5.800;2022-12-18T03:57:21;-4.90;99.90
55091;DHT22;40985;53.180;5.800;2022-12-18T03:59:51;-5.00;99.90
55091;DHT22;40985;53.180;5.800;2022-12-18T04:02:21;-5.00;99.90
55091;DHT22;40985;53.180;5.800;2022-12-18T04:04:53;-5.00;99.90
55091;DHT22;40985;53.180;5.800;2022-12-18T04:07:20;-5.10;99.90
55091;DHT22;40985;53.180;5.800;2022-12-18T04:09:48;-5.10;99.90
55091;DHT22;40985;53.180;5.800;2022-12-18T04:12:14;-5.10;99.90
55091;DHT22;40985;53.180;5.800;2022-12-18T04:14:40;-5.10;99.90
55091;DHT22;40985;53.180;5.800;2022-12-18T04:17:05;-5.10;99.90
55091;DHT22;40985;53.180;5.800;2022-12-18T04:19:31;-5.10;99.90
55091;DHT22;40985;53.180;5.800;2022-12-18T04:21:57;-5.10;99.90
55091;DHT22;40985;53.180;5.800;2022-12-18T04:24:22;-5.10;99.90
55091;DHT22;40985;53.180;5.800;2022-12-18T04:26:48;-5.20;99.90
55091;DHT22;40985;53.180;5.800;2022-12-18T04:29:13;-5.20;99.90
55091;DHT22;40985;53.180;5.800;2022-12-18T04:31:39;-5.20;99.90
55091;DHT22;40985;53.180;5.800;2022-12-18T04:34:05;-5.30;99.90
55091;DHT22;40985;53.180;5.800;2022-12-18T04:36:30;-5.30;99.90
55091;DHT22;40985;53.180;5.800;2022-12-18T04:38:56;-5.30;99.90
55091;DHT22;40985;53.180;5.800;2022-12-18T04:41:22;-5.30;99.90
55091;DHT22;40985;53.180;5.800;2022-12-18T04:43:47;-5.30;99.90
55091;DHT22;40985;53.180;5.800;2022-12-18T04:46:13;-5.30;99.90
55091;DHT22;40985;53.180;5.800;2022-12-18T04:48:39;-5.30;99.90
55091;DHT22;40985;53.180;5.800;2022-12-18T04:51:05;-5.40;99.90
55091;DHT22;40985;53.180;5.800;2022-12-18T04:53:31;-5.40;99.90
55091;DHT22;40985;53.180;5.800;2022-12-18T04:58:29;-5.40;99.90
55091;DHT22;40985;53.180;5.800;2022-12-18T05:00:55;-5.40;99.90
55091;DHT22;40985;53.180;5.800;2022-12-18T05:03:21;-5.50;99.90
55091;DHT22;40985;53.180;5.800;2022-12-18T05:05:50;-5.50;99.90
55091;DHT22;40985;53.180;5.800;2022-12-18T05:08:16;-5.60;99.90
55091;DHT22;40985;53.180;5.800;2022-12-18T05:10:42;-5.60;99.90
55091;DHT22;40985;53.180;5.800;2022-12-18T05:13:07;-5.70;99.90
55091;DHT22;40985;53.180;5.800;2022-12-18T05:15:34;-5.50;99.90
55091;DHT22;40985;53.180;5.800;2022-12-18T05:18:00;-5.60;99.90
55091;DHT22;40985;53.180;5.800;2022-12-18T05:20:27;-5.60;99.90
55091;DHT22;40985;53.180;5.800;2022-12-18T05:22:53;-5.60;99.90
55091;DHT22;40985;53.180;5.800;2022-12-18T05:25:20;-5.70;99.90
55091;DHT22;40985;53.180;5.800;2022-12-18T05:27:46;-5.70;99.90
55091;DHT22;40985;53.180;5.800;2022-12-18T05:30:12;-5.70;99.90
55091;DHT22;40985;53.180;5.800;2022-12-18T05:32:38;-5.70;99.90
55091;DHT22;40985;53.180;5.800;2022-12-18T05:35:06;-5.70;99.90
55091;DHT22;40985;53.180;5.800;2022-12-18T05:37:33;-5.70;99.90
55091;DHT22;40985;53.180;5.800;2022-12-18T05:39:59;-5.80;99.90
55091;DHT22;40985;53.180;5.800;2022-12-18T05:42:24;-5.80;99.90
55091;DHT22;40985;53.180;5.800;2022-12-18T05:44:50;-5.80;99.90
55091;DHT22;40985;53.180;5.800;2022-12-18T05:47:16;-5.80;99.90
55091;DHT22;40985;53.180;5.800;2022-12-18T05:49:42;-5.70;99.90
55091;DHT22;40985;53.180;5.800;2022-12-18T05:52:07;-5.80;99.90
55091;DHT22;40985;53.180;5.800;2022-12-18T05:54:33;-5.80;99.90
55091;DHT22;40985;53.180;5.800;2022-12-18T05:56:59;-5.80;99.90
55091;DHT22;40985;53.180;5.800;2022-12-18T05:59:24;-5.90;99.90
55091;DHT22;40985;53.180;5.800;2022-12-18T06:01:50;-5.90;99.90
55091;DHT22;40985;53.180;5.800;2022-12-18T06:04:15;-5.90;99.90
55091;DHT22;40985;53.180;5.800;2022-12-18T06:06:41;-6.00;99.90
55091;DHT22;40985;53.180;5.800;2022-12-18T06:09:07;-6.00;99.90
55091;DHT22;40985;53.180;5.800;2022-12-18T06:11:36;-6.00;99.90
55091;DHT22;40985;53.180;5.800;2022-12-18T06:14:03;-6.00;99.90
55091;DHT22;40985;53.180;5.800;2022-12-18T06:16:29;-6.00;99.90
55091;DHT22;40985;53.180;5.800;2022-12-18T06:19:02;-6.10;99.90
55091;DHT22;40985;53.180;5.800;2022-12-18T06:21:29;-6.10;99.90
55091;DHT22;40985;53.180;5.800;2022-12-18T06:23:55;-6.20;99.90
55091;DHT22;40985;53.180;5.800;2022-12-18T06:26:21;-6.20;99.90
55091;DHT22;40985;53.180;5.800;2022-12-18T06:28:47;-6.20;99.90
55091;DHT22;40985;53.180;5.800;2022-12-18T06:31:12;-6.30;99.90
55091;DHT22;40985;53.180;5.800;2022-12-18T06:33:39;-6.20;99.90
55091;DHT22;40985;53.180;5.800;2022-12-18T06:36:09;-6.30;99.90
55091;DHT22;40985;53.180;5.800;2022-12-18T06:38:38;-6.30;99.90
55091;DHT22;40985;53.180;5.800;2022-12-18T06:41:12;-6.40;99.90
55091;DHT22;40985;53.180;5.800;2022-12-18T06:43:38;-6.40;99.90
55091;DHT22;40985;53.180;5.800;2022-12-18T06:46:05;-6.40;99.90
55091;DHT22;40985;53.180;5.800;2022-12-18T06:48:31;-6.40;99.90
55091;DHT22;40985;53.180;5.800;2022-12-18T06:50:58;-6.40;99.90
55091;DHT22;40985;53.180;5.800;2022-12-18T06:53:23;-6.40;99.90
55091;DHT22;40985;53.180;5.800;2022-12-18T06:55:49;-6.40;99.90
55091;DHT22;40985;53.180;5.800;2022-12-18T06:58:15;-6.40;99.90
55091;DHT22;40985;53.180;5.800;2022-12-18T07:00:41;-6.50;99.90
55091;DHT22;40985;53.180;5.800;2022-12-18T07:03:06;-6.50;99.90
55091;DHT22;40985;53.180;5.800;2022-12-18T07:05:32;-6.50;99.90
55091;DHT22;40985;53.180;5.800;2022-12-18T07:07:58;-6.50;99.90
55091;DHT22;40985;53.180;5.800;2022-12-18T07:10:24;-6.60;99.90
55091;DHT22;40985;53.180;5.800;2022-12-18T07:12:50;-6.60;99.90
55091;DHT22;40985;53.180;5.800;2022-12-18T07:15:16;-6.60;99.90
55091;DHT22;40985;53.180;5.800;2022-12-18T07:17:41;-6.60;99.90
55091;DHT22;40985;53.180;5.800;2022-12-18T07:20:07;-6.60;99.90
55091;DHT22;40985;53.180;5.800;2022-12-18T07:22:33;-6.60;99.90
55091;DHT22;40985;53.180;5.800;2022-12-18T07:24:59;-6.60;99.90
55091;DHT22;40985;53.180;5.800;2022-12-18T07:27:25;-6.60;99.90
55091;DHT22;40985;53.180;5.800;2022-12-18T07:29:50;-6.50;99.90
55091;DHT22;40985;53.180;5.800;2022-12-18T07:32:16;-6.50;99.90
55091;DHT22;40985;53.180;5.800;2022-12-18T07:34:42;-6.50;99.90
55091;DHT22;40985;53.180;5.800;2022-12-18T07:37:07;-6.50;99.90
55091;DHT22;40985;53.180;5.800;2022-12-18T07:39:33;-6.50;99.90
55091;DHT22;40985;53.180;5.800;2022-12-18T07:41:59;-6.40;99.90
55091;DHT22;40985;53.180;5.800;2022-12-18T07:44:43;-6.40;99.90
55091;DHT22;40985;53.180;5.800;2022-12-18T07:47:08;-6.40;99.90
55091;DHT22;40985;53.180;5.800;2022-12-18T07:49:34;-6.40;99.90
55091;DHT22;40985;53.180;5.800;2022-12-18T07:51:59;-6.40;99.90
55091;DHT22;40985;53.180;5.800;2022-12-18T07:54:25;-6.30;99.90
55091;DHT22;40985;53.180;5.800;2022-12-18T07:56:51;-6.30;99.90
55091;DHT22;40985;53.180;5.800;2022-12-18T07:59:18;-6.30;99.90
55091;DHT22;40985;53.180;5.800;2022-12-18T08:01:43;-6.20;99.90
55091;DHT22;40985;53.180;5.800;2022-12-18T08:04:09;-6.20;99.90
55091;DHT22;40985;53.180;5.800;2022-12-18T08:06:35;-6.10;99.90
55091;DHT22;40985;53.180;5.800;2022-12-18T08:09:00;-6.20;99.90
55091;DHT22;40985;53.180;5.800;2022-12-18T08:11:27;-6.10;99.90
55091;DHT22;40985;53.180;5.800;2022-12-18T08:13:54;-6.10;99.90
55091;DHT22;40985;53.180;5.800;2022-12-18T08:16:20;-6.10;99.90
55091;DHT22;40985;53.180;5.800;2022-12-18T08:18:47;-6.00;99.90
55091;DHT22;40985;53.180;5.800;2022-12-18T08:21:33;-6.00;99.90
55091;DHT22;40985;53.180;5.800;2022-12-18T08:24:00;-5.90;99.90
55091;DHT22;40985;53.180;5.800;2022-12-18T08:26:28;-5.90;99.90
55091;DHT22;40985;53.180;5.800;2022-12-18T08:28:55;-5.90;99.90
55091;DHT22;40985;53.180;5.800;2022-12-18T08:31:22;-5.90;99.90
55091;DHT22;40985;53.180;5.800;2022-12-18T08:33:51;-5.90;99.90
55091;DHT22;40985;53.180;5.800;2022-12-18T08:36:18;-5.80;99.90
55091;DHT22;40985;53.180;5.800;2022-12-18T08:38:44;-5.90;99.90
55091;DHT22;40985;53.180;5.800;2022-12-18T08:41:12;-5.80;99.90
55091;DHT22;40985;53.180;5.800;2022-12-18T08:43:38;-5.70;99.90
55091;DHT22;40985;53.180;5.800;2022-12-18T08:46:24;-5.60;99.90
55091;DHT22;40985;53.180;5.800;2022-12-18T08:48:51;-5.60;99.90
55091;DHT22;40985;53.180;5.800;2022-12-18T08:51:18;-5.60;99.90
55091;DHT22;40985;53.180;5.800;2022-12-18T08:53:44;-5.50;99.90
55091;DHT22;40985;53.180;5.800;2022-12-18T08:56:10;-5.40;99.90
55091;DHT22;40985;53.180;5.800;2022-12-18T08:58:36;-5.40;99.90
55091;DHT22;40985;53.180;5.800;2022-12-18T09:01:06;-5.30;99.90
55091;DHT22;40985;53.180;5.800;2022-12-18T09:03:34;-5.30;99.90
55091;DHT22;40985;53.180;5.800;2022-12-18T09:06:00;-5.20;99.90
55091;DHT22;40985;53.180;5.800;2022-12-18T09:08:26;-5.10;99.90
55091;DHT22;40985;53.180;5.800;2022-12-18T09:10:52;-5.00;99.90
55091;DHT22;40985;53.180;5.800;2022-12-18T09:13:18;-5.00;99.90
55091;DHT22;40985;53.180;5.800;2022-12-18T09:15:46;-4.80;99.90
55091;DHT22;40985;53.180;5.800;2022-12-18T09:18:13;-4.80;99.90
55091;DHT22;40985;53.180;5.800;2022-12-18T09:20:40;-4.70;99.90
55091;DHT22;40985;53.180;5.800;2022-12-18T09:23:06;-4.60;99.90
55091;DHT22;40985;53.180;5.800;2022-12-18T09:25:33;-4.50;99.90
55091;DHT22;40985;53.180;5.800;2022-12-18T09:28:11;-4.50;99.90
55091;DHT22;40985;53.180;5.800;2022-12-18T09:30:38;-4.30;99.90
55091;DHT22;40985;53.180;5.800;2022-12-18T09:33:04;-4.30;99.90
55091;DHT22;40985;53.180;5.800;2022-12-18T09:35:29;-4.20;99.90
55091;DHT22;40985;53.180;5.800;2022-12-18T09:37:55;-4.20;99.90
55091;DHT22;40985;53.180;5.800;2022-12-18T09:40:24;-4.20;99.90
55091;DHT22;40985;53.180;5.800;2022-12-18T09:43:04;-4.20;99.90
55091;DHT22;40985;53.180;5.800;2022-12-18T09:45:43;-4.10;99.90
55091;DHT22;40985;53.180;5.800;2022-12-18T09:48:21;-4.10;99.90
55091;DHT22;40985;53.180;5.800;2022-12-18T09:50:50;-4.00;99.90
55091;DHT22;40985;53.180;5.800;2022-12-18T09:53:22;-3.90;99.90
55091;DHT22;40985;53.180;5.800;2022-12-18T09:55:51;-3.90;99.90
55091;DHT22;40985;53.180;5.800;2022-12-18T09:58:39;-3.90;99.90
55091;DHT22;40985;53.180;5.800;2022-12-18T10:01:21;-3.80;99.90
55091;DHT22;40985;53.180;5.800;2022-12-18T10:03:48;-3.70;99.90
55091;DHT22;40985;53.180;5.800;2022-12-18T10:06:22;-3.70;99.90
55091;DHT22;40985;53.180;5.800;2022-12-18T10:14:58;-3.60;99.90
55091;DHT22;40985;53.180;5.800;2022-12-18T10:17:34;-3.50;99.90
55091;DHT22;40985;53.180;5.800;2022-12-18T10:23:02;-3.50;99.90
55091;DHT22;40985;53.180;5.800;2022-12-18T10:28:16;-3.30;99.90
55091;DHT22;40985;53.180;5.800;2022-12-18T10:30:43;-3.20;99.90
55091;DHT22;40985;53.180;5.800;2022-12-18T10:33:14;-3.10;99.90
55091;DHT22;40985;53.180;5.800;2022-12-18T10:35:42;-3.10;99.90
55091;DHT22;40985;53.180;5.800;2022-12-18T10:40:59;-2.90;99.90
55091;DHT22;40985;53.180;5.800;2022-12-18T10:43:33;-2.90;99.90
55091;DHT22;40985;53.180;5.800;2022-12-18T10:48:40;-2.80;99.90
55091;DHT22;40985;53.180;5.800;2022-12-18T10:51:08;-2.70;99.90
55091;DHT22;40985;53.180;5.800;2022-12-18T10:53:36;-2.70;99.90
55091;DHT22;40985;53.180;5.800;2022-12-18T10:56:04;-2.60;99.90
55091;DHT22;40985;53.180;5.800;2022-12-18T10:58:34;-2.60;99.90
55091;DHT22;40985;53.180;5.800;2022-12-18T11:01:15;-2.60;99.90
55091;DHT22;40985;53.180;5.800;2022-12-18T11:06:22;-2.50;99.90
55091;DHT22;40985;53.180;5.800;2022-12-18T11:09:28;-2.50;99.90
55091;DHT22;40985;53.180;5.800;2022-12-18T11:11:56;-2.40;99.90
55091;DHT22;40985;53.180;5.800;2022-12-18T11:14:34;-2.30;99.90
55091;DHT22;40985;53.180;5.800;2022-12-18T11:17:19;-2.30;99.90
55091;DHT22;40985;53.180;5.800;2022-12-18T11:19:56;-2.30;99.90
55091;DHT22;40985;53.180;5.800;2022-12-18T11:22:30;-2.30;99.90
55091;DHT22;40985;53.180;5.800;2022-12-18T11:24:59;-2.20;99.90
55091;DHT22;40985;53.180;5.800;2022-12-18T11:27:26;-2.20;99.90
55091;DHT22;40985;53.180;5.800;2022-12-18T11:30:26;-2.20;99.90
55091;DHT22;40985;53.180;5.800;2022-12-18T11:35:52;-2.10;99.90
55091;DHT22;40985;53.180;5.800;2022-12-18T11:38:32;-2.10;99.90
55091;DHT22;40985;53.180;5.800;2022-12-18T11:41:20;-2.10;99.90
55091;DHT22;40985;53.180;5.800;2022-12-18T11:44:03;-2.10;99.90
55091;DHT22;40985;53.180;5.800;2022-12-18T11:46:45;-2.00;99.90
55091;DHT22;40985;53.180;5.800;2022-12-18T11:49:34;-2.00;99.90
55091;DHT22;40985;53.180;5.800;2022-12-18T11:52:15;-2.00;99.90
55091;DHT22;40985;53.180;5.800;2022-12-18T11:54:42;-2.00;99.90
55091;DHT22;40985;53.180;5.800;2022-12-18T12:11:53;-2.00;99.90
55091;DHT22;40985;53.180;5.800;2022-12-18T12:17:34;-2.00;99.90
55091;DHT22;40985;53.180;5.800;2022-12-18T12:22:45;-2.00;99.90
55091;DHT22;40985;53.180;5.800;2022-12-18T12:25:18;-1.90;99.90
55091;DHT22;40985;53.180;5.800;2022-12-18T12:28:13;-1.90;99.90
55091;DHT22;40985;53.180;5.800;2022-12-18T12:30:48;-1.90;99.90
55091;DHT22;40985;53.180;5.800;2022-12-18T12:33:33;-1.80;99.90
55091;DHT22;40985;53.180;5.800;2022-12-18T12:36:10;-1.80;99.90
55091;DHT22;40985;53.180;5.800;2022-12-18T12:39:05;-1.80;99.90
55091;DHT22;40985;53.180;5.800;2022-12-18T12:41:31;-1.70;99.90
55091;DHT22;40985;53.180;5.800;2022-12-18T12:44:28;-1.80;99.90
55091;DHT22;40985;53.180;5.800;2022-12-18T12:46:57;-1.70;99.90
55091;DHT22;40985;53.180;5.800;2022-12-18T12:49:27;-1.80;99.90
55091;DHT22;40985;53.180;5.800;2022-12-18T12:52:05;-1.70;99.90
55091;DHT22;40985;53.180;5.800;2022-12-18T12:54:32;-1.70;99.90
55091;DHT22;40985;53.180;5.800;2022-12-18T12:57:33;-1.70;99.90
55091;DHT22;40985;53.180;5.800;2022-12-18T13:02:54;-1.70;99.90
55091;DHT22;40985;53.180;5.800;2022-12-18T13:05:34;-1.70;99.90
55091;DHT22;40985;53.180;5.800;2022-12-18T13:08:09;-1.60;99.90
55091;DHT22;40985;53.180;5.800;2022-12-18T13:13:15;-1.60;99.90
55091;DHT22;40985;53.180;5.800;2022-12-18T13:20:39;-1.60;99.90
55091;DHT22;40985;53.180;5.800;2022-12-18T13:25:54;-1.60;99.90
55091;DHT22;40985;53.180;5.800;2022-12-18T13:34:21;-1.60;99.90
55091;DHT22;40985;53.180;5.800;2022-12-18T13:36:48;-1.60;99.90
55091;DHT22;40985;53.180;5.800;2022-12-18T13:41:43;-1.60;99.90
55091;DHT22;40985;53.180;5.800;2022-12-18T13:44:31;-1.60;99.90
55091;DHT22;40985;53.180;5.800;2022-12-18T13:46:59;-1.60;99.90
55091;DHT22;40985;53.180;5.800;2022-12-18T13:49:38;-1.60;99.90
55091;DHT22;40985;53.180;5.800;2022-12-18T13:52:20;-1.60;99.90
55091;DHT22;40985;53.180;5.800;2022-12-18T13:54:57;-1.60;99.90
55091;DHT22;40985;53.180;5.800;2022-12-18T13:57:32;-1.60;99.90
55091;DHT22;40985;53.180;5.800;2022-12-18T14:00:19;-1.60;99.90
55091;DHT22;40985;53.180;5.800;2022-12-18T14:02:49;-1.70;99.90
55091;DHT22;40985;53.180;5.800;2022-12-18T14:05:33;-1.60;99.90
55091;DHT22;40985;53.180;5.800;2022-12-18T14:08:12;-1.60;99.90
55091;DHT22;40985;53.180;5.800;2022-12-18T14:10:45;-1.70;99.90
55091;DHT22;40985;53.180;5.800;2022-12-18T14:13:17;-1.70;99.90
55091;DHT22;40985;53.180;5.800;2022-12-18T14:15:47;-1.70;99.90
55091;DHT22;40985;53.180;5.800;2022-12-18T14:21:03;-1.70;99.90
55091;DHT22;40985;53.180;5.800;2022-12-18T14:23:33;-1.70;99.90
55091;DHT22;40985;53.180;5.800;2022-12-18T14:26:01;-1.70;99.90
55091;DHT22;40985;53.180;5.800;2022-12-18T14:28:27;-1.70;99.90
55091;DHT22;40985;53.180;5.800;2022-12-18T14:30:54;-1.80;99.90
55091;DHT22;40985;53.180;5.800;2022-12-18T14:33:25;-1.80;99.90
55091;DHT22;40985;53.180;5.800;2022-12-18T14:36:01;-1.80;99.90
55091;DHT22;40985;53.180;5.800;2022-12-18T14:38:36;-1.80;99.90
55091;DHT22;40985;53.180;5.800;2022-12-18T14:41:13;-1.80;99.90
55091;DHT22;40985;53.180;5.800;2022-12-18T14:43:41;-1.80;99.90
55091;DHT22;40985;53.180;5.800;2022-12-18T14:46:27;-1.80;99.90
55091;DHT22;40985;53.180;5.800;2022-12-18T14:48:54;-1.80;99.90
55091;DHT22;40985;53.180;5.800;2022-12-18T14:51:25;-1.80;99.90
55091;DHT22;40985;53.180;5.800;2022-12-18T14:54:05;-1.90;99.90
55091;DHT22;40985;53.180;5.800;2022-12-18T14:56:45;-1.90;99.90
55091;DHT22;40985;53.180;5.800;2022-12-18T14:59:17;-1.90;99.90
55091;DHT22;40985;53.180;5.800;2022-12-18T15:02:20;-2.00;99.90
55091;DHT22;40985;53.180;5.800;2022-12-18T15:04:47;-2.00;99.90
55091;DHT22;40985;53.180;5.800;2022-12-18T15:07:18;-2.00;99.90
55091;DHT22;40985;53.180;5.800;2022-12-18T15:12:44;-2.00;99.90
55091;DHT22;40985;53.180;5.800;2022-12-18T15:18:19;-2.00;99.90
55091;DHT22;40985;53.180;5.800;2022-12-18T15:20:48;-2.00;99.90
55091;DHT22;40985;53.180;5.800;2022-12-18T15:28:30;-2.00;99.90
55091;DHT22;40985;53.180;5.800;2022-12-18T15:31:21;-1.90;99.90
55091;DHT22;40985;53.180;5.800;2022-12-18T15:36:21;-1.90;99.90
55091;DHT22;40985;53.180;5.800;2022-12-18T15:38:48;-1.90;99.90
55091;DHT22;40985;53.180;5.800;2022-12-18T15:41:16;-1.90;99.90
55091;DHT22;40985;53.180;5.800;2022-12-18T15:43:41;-1.90;99.90
55091;DHT22;40985;53.180;5.800;2022-12-18T15:46:19;-2.00;99.90
55091;DHT22;40985;53.180;5.800;2022-12-18T15:48:53;-1.90;99.90
55091;DHT22;40985;53.180;5.800;2022-12-18T15:51:26;-1.90;99.90
55091;DHT22;40985;53.180;5.800;2022-12-18T15:53:55;-1.90;99.90
55091;DHT22;40985;53.180;5.800;2022-12-18T15:56:21;-1.90;99.90
55091;DHT22;40985;53.180;5.800;2022-12-18T15:59:17;-1.90;99.90
55091;DHT22;40985;53.180;5.800;2022-12-18T16:01:46;-1.90;99.90
55091;DHT22;40985;53.180;5.800;2022-12-18T16:04:14;-1.90;99.90
55091;DHT22;40985;53.180;5.800;2022-12-18T16:06:40;-1.90;99.90
55091;DHT22;40985;53.180;5.800;2022-12-18T16:09:07;-1.90;99.90
55091;DHT22;40985;53.180;5.800;2022-12-18T16:11:35;-1.80;99.90
55091;DHT22;40985;53.180;5.800;2022-12-18T16:14:11;-1.80;99.90
55091;DHT22;40985;53.180;5.800;2022-12-18T16:16:38;-1.80;99.90
55091;DHT22;40985;53.180;5.800;2022-12-18T16:19:03;-1.80;99.90
55091;DHT22;40985;53.180;5.800;2022-12-18T16:21:29;-1.80;99.90
55091;DHT22;40985;53.180;5.800;2022-12-18T16:23:55;-1.80;99.90
55091;DHT22;40985;53.180;5.800;2022-12-18T16:26:20;-1.70;99.90
55091;DHT22;40985;53.180;5.800;2022-12-18T16:28:46;-1.70;99.90
55091;DHT22;40985;53.180;5.800;2022-12-18T16:31:12;-1.70;99.90
55091;DHT22;40985;53.180;5.800;2022-12-18T16:33:37;-1.70;99.90
55091;DHT22;40985;53.180;5.800;2022-12-18T16:36:03;-1.80;99.90
55091;DHT22;40985;53.180;5.800;2022-12-18T16:38:29;-1.70;99.90
55091;DHT22;40985;53.180;5.800;2022-12-18T16:40:54;-1.70;99.90
55091;DHT22;40985;53.180;5.800;2022-12-18T16:43:39;-1.70;99.90
55091;DHT22;40985;53.180;5.800;2022-12-18T16:46:04;-1.70;99.90
55091;DHT22;40985;53.180;5.800;2022-12-18T16:48:30;-1.70;99.90
55091;DHT22;40985;53.180;5.800;2022-12-18T16:51:01;-1.70;99.90
55091;DHT22;40985;53.180;5.800;2022-12-18T16:53:27;-1.60;99.90
55091;DHT22;40985;53.180;5.800;2022-12-18T16:55:56;-1.60;99.90
55091;DHT22;40985;53.180;5.800;2022-12-18T16:58:22;-1.60;99.90
55091;DHT22;40985;53.180;5.800;2022-12-18T17:00:47;-1.60;99.90
55091;DHT22;40985;53.180;5.800;2022-12-18T17:03:13;-1.60;99.90
55091;DHT22;40985;53.180;5.800;2022-12-18T17:05:39;-1.50;99.90
55091;DHT22;40985;53.180;5.800;2022-12-18T17:08:05;-1.50;99.90
55091;DHT22;40985;53.180;5.800;2022-12-18T17:10:30;-1.60;99.90
55091;DHT22;40985;53.180;5.800;2022-12-18T17:12:56;-1.40;99.90
55091;DHT22;40985;53.180;5.800;2022-12-18T17:15:22;-1.50;99.90
55091;DHT22;40985;53.180;5.800;2022-12-18T17:17:47;-1.50;99.90
55091;DHT22;40985;53.180;5.800;2022-12-18T17:20:13;-1.40;99.90
55091;DHT22;40985;53.180;5.800;2022-12-18T17:22:39;-1.50;99.90
55091;DHT22;40985;53.180;5.800;2022-12-18T17:25:05;-1.40;99.90
55091;DHT22;40985;53.180;5.800;2022-12-18T17:27:30;-1.40;99.90
55091;DHT22;40985;53.180;5.800;2022-12-18T17:29:56;-1.40;99.90
55091;DHT22;40985;53.180;5.800;2022-12-18T17:32:22;-1.40;99.90
55091;DHT22;40985;53.180;5.800;2022-12-18T17:34:47;-1.40;99.90
55091;DHT22;40985;53.180;5.800;2022-12-18T17:37:13;-1.40;99.90
55091;DHT22;40985;53.180;5.800;2022-12-18T17:39:39;-1.40;99.90
55091;DHT22;40985;53.180;5.800;2022-12-18T17:42:04;-1.30;99.90